Time;durP1;ratioP1;P1;durP2;ratioP2;P2;SDS_P1;SDS_P2;PMS_P1;PMS_P2;Temp;Humidity;BMP_temperature;BMP_pressure;BME280_temperature;BME280_humidity;BME280_pressure;Samples;Min_cycle;Max_cycle;Signal;HPM_P1;HPM_P2
2022/11/14 00:00:07;;;;;;;112.25;60.75;;;;;;;-146.58;100.00;69501.63;5050787;28;20048;-62
2022/11/14 00:02:32;;;;;;;;;;;;;;;-146.58;100.00;69501.63;5050200;28;20051;-62
2022/11/14 00:04:58;;;;;;;106.00;59.60;;;;;;;-146.58;100.00;69501.63;5070783;28;19912;-62
2022/11/14 00:07:23;;;;;;;111.25;62.20;;;;;;;-146.58;100.00;69501.63;5069298;28;20060;-62
2022/11/14 00:09:48;;;;;;;109.80;60.80;;;;;;;-146.58;100.00;69501.63;5065023;28;20020;-62
2022/11/14 00:12:14;;;;;;;114.05;58.78;;;;;;;-146.58;100.00;69501.63;5069455;28;20094;-62
2022/11/14 00:14:39;;;;;;;106.45;59.88;;;;;;;-146.58;100.00;69501.63;5058880;28;20025;-60
2022/11/14 00:17:04;;;;;;;113.07;61.50;;;;;;;-146.58;100.00;69501.63;5048857;28;20050;-60
2022/11/14 00:19:30;;;;;;;110.00;58.05;;;;;;;-146.58;100.00;69501.63;5050571;28;20020;-60
2022/11/14 00:21:56;;;;;;;125.72;65.07;;;;;;;-146.58;100.00;69501.63;5049022;28;20037;-60
2022/11/14 00:24:21;;;;;;;114.75;61.40;;;;;;;-146.58;100.00;69501.63;5050497;28;20029;-60
2022/11/14 00:26:47;;;;;;;120.55;65.50;;;;;;;-146.58;100.00;69501.63;5048918;28;20460;-60
2022/11/14 00:29:15;;;;;;;106.47;61.33;;;;;;;-146.58;100.00;69501.63;5050501;28;20029;-59
2022/11/14 00:31:41;;;;;;;117.75;59.33;;;;;;;-146.58;100.00;69501.63;5048584;28;20060;-62
2022/11/14 00:34:07;;;;;;;118.20;64.68;;;;;;;-146.58;100.00;69501.63;5050514;28;20602;-62
2022/11/14 00:36:33;;;;;;;117.65;63.10;;;;;;;-146.58;100.00;69501.63;5050411;28;20029;-62
2022/11/14 00:38:58;;;;;;;116.47;62.88;;;;;;;-146.58;100.00;69501.63;5048327;28;20044;-62
2022/11/14 00:41:24;;;;;;;124.47;62.70;;;;;;;-146.58;100.00;69501.63;5056662;28;20039;-62
2022/11/14 00:43:49;;;;;;;136.45;65.95;;;;;;;-146.58;100.00;69501.63;5072645;28;20060;-62
2022/11/14 00:46:14;;;;;;;123.15;59.75;;;;;;;-146.58;100.00;69501.63;5073833;28;20083;-60
2022/11/14 00:48:40;;;;;;;120.50;65.53;;;;;;;-146.58;100.00;69501.63;5072490;28;20040;-60
2022/11/14 00:51:05;;;;;;;112.97;60.42;;;;;;;-146.58;100.00;69501.63;5074246;28;20035;-59
2022/11/14 00:53:31;;;;;;;125.35;60.70;;;;;;;-146.58;100.00;69501.63;5072217;28;20094;-60
2022/11/14 00:55:56;;;;;;;121.32;59.72;;;;;;;-146.58;100.00;69501.63;5073483;28;20075;-60
2022/11/14 00:58:22;;;;;;;116.43;62.80;;;;;;;-146.58;100.00;69501.63;5072290;28;20041;-60
2022/11/14 01:00:47;;;;;;;117.07;61.53;;;;;;;-146.58;100.00;69501.63;5073547;28;20028;-60
2022/11/14 01:03:13;;;;;;;127.47;60.70;;;;;;;-146.58;100.00;69501.63;5072276;28;20097;-60
2022/11/14 01:05:46;;;;;;;119.55;62.45;;;;;;;-146.58;100.00;69501.63;5073147;28;20032;-60
2022/11/14 01:08:13;;;;;;;125.68;61.63;;;;;;;-146.58;100.00;69501.63;5072193;28;20519;-60
2022/11/14 01:10:43;;;;;;;120.68;61.40;;;;;;;-146.58;100.00;69501.63;5057269;28;20115;-61
2022/11/14 01:13:09;;;;;;;131.82;62.03;;;;;;;-146.58;100.00;69501.63;5052414;28;20032;-61
2022/11/14 01:15:43;;;;;;;143.25;65.28;;;;;;;-146.58;100.00;69501.63;5053398;28;20036;-61
2022/11/14 01:18:17;;;;;;;135.40;63.75;;;;;;;-146.58;100.00;69501.63;5052220;28;20503;-61
2022/11/14 01:20:45;;;;;;;129.45;62.20;;;;;;;-146.58;100.00;69501.63;5053202;28;20020;-61
2022/11/14 01:23:12;;;;;;;124.75;66.45;;;;;;;-146.58;100.00;69501.63;5051921;28;20083;-60
2022/11/14 01:25:38;;;;;;;135.02;64.70;;;;;;;-146.58;100.00;69501.63;5053489;28;20512;-60
2022/11/14 01:28:09;;;;;;;125.28;61.55;;;;;;;-146.58;100.00;69501.63;5052114;28;20055;-61
2022/11/14 01:30:36;;;;;;;137.20;64.72;;;;;;;-146.58;100.00;69501.63;5053413;28;20021;-60
2022/11/14 01:33:01;;;;;;;140.63;64.47;;;;;;;-146.58;100.00;69501.63;5051761;28;20037;-60
2022/11/14 01:35:27;;;;;;;141.88;65.15;;;;;;;-146.58;100.00;69501.63;5053043;28;20029;-60
2022/11/14 01:37:52;;;;;;;135.93;64.25;;;;;;;-146.58;100.00;69501.63;5063492;28;20503;-60
2022/11/14 01:40:18;;;;;;;136.70;61.53;;;;;;;-146.58;100.00;69501.63;5073249;28;20036;-60
2022/11/14 01:43:19;;;;;;;119.68;58.05;;;;;;;-146.58;100.00;69501.63;5071523;28;20487;-60
2022/11/14 01:46:06;;;;;;;132.40;63.63;;;;;;;-146.58;100.00;69501.63;5072656;28;20149;-61
2022/11/14 01:48:41;;;;;;;135.52;59.95;;;;;;;-146.58;100.00;69501.63;5071558;28;20041;-61
2022/11/14 01:51:17;;;;;;;143.15;67.90;;;;;;;-146.58;100.00;69501.63;5072463;28;20032;-61
2022/11/14 01:53:46;;;;;;;121.35;62.00;;;;;;;-146.58;100.00;69501.63;5071182;28;20047;-61
2022/11/14 01:56:15;;;;;;;128.02;66.80;;;;;;;-146.58;100.00;69501.63;5072836;28;20043;-61
2022/11/14 01:58:45;;;;;;;137.38;58.80;;;;;;;-146.58;100.00;69501.63;5070786;28;20052;-61
2022/11/14 02:01:11;;;;;;;150.50;65.85;;;;;;;-146.58;100.00;69501.63;5072884;28;20052;-61
2022/11/14 02:03:39;;;;;;;149.10;68.90;;;;;;;-146.58;100.00;69501.63;5057210;28;20055;-61
2022/11/14 02:06:06;;;;;;;142.93;63.92;;;;;;;-146.58;100.00;69501.63;5052806;28;20036;-61
2022/11/14 02:08:33;;;;;;;127.30;62.15;;;;;;;-146.58;100.00;69501.63;5045723;28;20780;-61
2022/11/14 02:10:58;;;;;;;124.55;60.58;;;;;;;-146.58;100.00;69501.63;5052422;28;20657;-61
2022/11/14 02:13:23;;;;;;;146.20;63.83;;;;;;;-146.58;100.00;69501.63;5051353;28;20055;-61
2022/11/14 02:15:49;;;;;;;135.55;61.80;;;;;;;-146.58;100.00;69501.63;5052040;28;20024;-61
2022/11/14 02:18:14;;;;;;;123.15;62.08;;;;;;;-146.58;100.00;69501.63;5050696;28;20569;-61
2022/11/14 02:20:42;;;;;;;140.60;61.95;;;;;;;-146.58;100.00;69501.63;5052365;28;20472;-60
2022/11/14 02:23:10;;;;;;;144.40;63.10;;;;;;;-146.58;100.00;69501.63;5050897;28;20124;-60
2022/11/14 02:25:37;;;;;;;151.32;62.40;;;;;;;-146.58;100.00;69501.63;5052378;28;20056;-60
2022/11/14 02:28:03;;;;;;;146.85;60.13;;;;;;;-146.58;100.00;69501.63;5050895;28;20041;-60
2022/11/14 02:30:29;;;;;;;125.68;64.00;;;;;;;1.97;100.00;161084.81;5052912;28;20028;-61
2022/11/14 02:32:54;;;;;;;146.93;66.60;;;;;;;1.97;100.00;161086.13;5050745;28;20041;-63
2022/11/14 02:35:19;;;;;;;145.18;63.00;;;;;;;1.98;100.00;161041.16;5052208;28;20021;-63
2022/11/14 02:37:45;;;;;;;142.23;66.68;;;;;;;1.98;100.00;160670.88;5050228;28;20423;-63
2022/11/14 02:40:10;;;;;;;150.45;61.53;;;;;;;1.99;100.00;160159.03;5052147;28;20029;-63
2022/11/14 02:42:36;;;;;;;137.40;61.95;;;;;;;1.99;100.00;159719.41;5050755;28;20496;-63
2022/11/14 02:45:01;;;;;;;153.02;63.42;;;;;;;2.01;100.00;159298.78;5051423;28;20417;-63
2022/11/14 02:47:26;;;;;;;140.00;67.65;;;;;;;2.00;100.00;159032.13;5050445;28;20415;-62
2022/11/14 02:49:52;;;;;;;147.10;63.10;;;;;;;2.00;100.00;158520.50;5051679;28;20029;-62
2022/11/14 02:52:17;;;;;;;136.73;66.18;;;;;;;2.00;100.00;158302.81;5050242;28;20033;-61
2022/11/14 02:54:42;;;;;;;154.32;63.88;;;;;;;1.84;100.00;157683.88;5051545;28;20028;-61
2022/11/14 02:57:08;;;;;;;142.27;66.47;;;;;;;2.04;100.00;156913.47;5057734;28;20511;-62
2022/11/14 02:59:33;;;;;;;132.25;62.55;;;;;;;1.99;100.00;156803.91;5071070;28;20020;-62
2022/11/14 03:01:59;;;;;;;138.63;63.05;;;;;;;1.97;100.00;156902.06;5070277;28;20028;-62
2022/11/14 03:04:24;;;;;;;131.80;61.67;;;;;;;1.92;100.00;157302.41;5071015;28;20025;-62
2022/11/14 03:06:49;;;;;;;138.68;66.85;;;;;;;1.97;100.00;156859.84;5069573;28;20036;-60
2022/11/14 03:09:15;;;;;;;139.50;64.25;;;;;;;1.97;100.00;156363.56;5071450;28;20016;-62
2022/11/14 03:11:40;;;;;;;138.98;61.42;;;;;;;1.96;100.00;156226.25;5065351;28;20071;-62
2022/11/14 03:14:05;;;;;;;147.50;64.57;;;;;;;1.97;100.00;155645.63;5049673;28;20048;-62
2022/11/14 03:16:31;;;;;;;140.23;62.58;;;;;;;1.93;100.00;155487.03;5051338;28;20032;-62
2022/11/14 03:18:56;;;;;;;127.88;60.10;;;;;;;1.89;100.00;155203.38;5049449;28;20045;-62
2022/11/14 03:21:22;;;;;;;131.38;63.97;;;;;;;1.89;100.00;154866.28;5050887;28;20025;-62
2022/11/14 03:23:47;;;;;;;135.25;62.15;;;;;;;1.88;100.00;154450.53;5049835;28;20047;-62
2022/11/14 03:26:14;;;;;;;143.20;62.47;;;;;;;1.87;100.00;153942.44;5051186;28;20029;-62
2022/11/14 03:28:40;;;;;;;137.57;59.72;;;;;;;1.82;100.00;153739.44;5049412;28;20041;-62
2022/11/14 03:31:07;;;;;;;146.10;58.25;;;;;;;1.82;100.00;153395.78;5049537;28;20033;-61
2022/11/14 03:33:34;;;;;;;136.15;62.40;;;;;;;1.82;100.00;153076.47;5051064;28;20021;-61
2022/11/14 03:35:59;;;;;;;135.05;64.57;;;;;;;1.83;100.00;153080.44;5049522;28;20029;-61
2022/11/14 03:38:25;;;;;;;136.85;68.68;;;;;;;1.80;100.00;153038.78;5050585;28;20086;-61
2022/11/14 03:40:50;;;;;;;124.47;59.28;;;;;;;1.78;100.00;153380.16;5068030;28;20021;-61
2022/11/14 03:43:17;;;;;;;131.90;62.10;;;;;;;1.71;100.00;154097.09;5069595;28;20052;-61
2022/11/14 03:45:43;;;;;;;139.57;65.72;;;;;;;1.71;100.00;154059.06;5070342;28;20060;-61
2022/11/14 03:48:09;;;;;;;125.88;60.65;;;;;;;1.70;100.00;153839.13;5069503;28;20457;-61
2022/11/14 03:50:34;;;;;;;129.52;64.07;;;;;;;1.67;100.00;154048.81;5070920;28;20021;-61
2022/11/14 03:53:00;;;;;;;119.88;55.92;;;;;;;1.67;100.00;154122.16;5068832;28;20052;-61
2022/11/14 03:55:26;;;;;;;125.85;60.40;;;;;;;1.65;100.00;154244.72;5070331;28;20056;-61
2022/11/14 03:57:51;;;;;;;123.63;62.53;;;;;;;1.65;100.00;154307.19;5068850;28;20048;-61
2022/11/14 04:00:17;;;;;;;146.18;61.33;;;;;;;1.63;100.00;154530.28;5070399;28;20037;-61
2022/11/14 04:02:42;;;;;;;121.93;60.67;;;;;;;1.61;100.00;154639.22;5069184;28;20047;-62
2022/11/14 04:05:08;;;;;;;134.02;64.60;;;;;;;1.58;100.00;154767.25;5070817;28;20103;-63
2022/11/14 04:07:33;;;;;;;136.85;62.30;;;;;;;1.58;100.00;154863.72;5059611;28;20377;-61
2022/11/14 04:09:59;;;;;;;139.02;60.53;;;;;;;1.56;100.00;155225.41;5049147;28;20028;-62
2022/11/14 04:12:24;;;;;;;118.47;57.72;;;;;;;1.54;100.00;155658.97;5049386;28;20037;-62
2022/11/14 04:14:49;;;;;;;134.68;59.55;;;;;;;1.48;100.00;156344.47;5052035;28;20028;-62
2022/11/14 04:17:15;;;;;;;128.25;56.13;;;;;;;1.47;100.00;156882.69;5053476;28;20037;-62
2022/11/14 04:19:40;;;;;;;124.60;58.03;;;;;;;1.47;100.00;157400.53;5054412;28;20067;-62
2022/11/14 04:22:05;;;;;;;131.98;58.30;;;;;;;1.47;100.00;157613.84;5053039;28;20407;-62
2022/11/14 04:24:31;;;;;;;140.25;61.05;;;;;;;1.48;100.00;157670.84;5054319;28;20020;-61
2022/11/14 04:26:56;;;;;;;126.63;57.92;;;;;;;1.48;100.00;157594.72;5052930;28;20139;-61
2022/11/14 04:29:22;;;;;;;124.55;59.53;;;;;;;1.50;100.00;157508.94;5054263;28;20025;-61
2022/11/14 04:31:47;;;;;;;126.90;56.83;;;;;;;1.45;100.00;157358.56;5053031;28;20040;-61
2022/11/14 04:34:13;;;;;;;134.93;55.88;;;;;;;1.48;100.00;157312.03;5054668;28;20028;-60
2022/11/14 04:36:38;;;;;;;121.68;55.58;;;;;;;1.45;100.00;157396.59;5072535;28;20044;-60
2022/11/14 04:39:04;;;;;;;119.03;56.35;;;;;;;1.46;100.00;157249.69;5074196;28;20348;-60
2022/11/14 04:41:29;;;;;;;139.65;62.83;;;;;;;1.45;100.00;157130.25;5073049;28;20043;-60
2022/11/14 04:43:54;;;;;;;122.75;60.35;;;;;;;1.40;100.00;157337.25;5073827;28;20566;-60
2022/11/14 04:46:20;;;;;;;139.70;60.22;;;;;;;1.46;100.00;157105.66;5072881;28;20036;-60
2022/11/14 04:48:45;;;;;;;137.25;63.95;;;;;;;1.41;100.00;156886.03;5062433;28;20020;-60
2022/11/14 04:51:10;;;;;;;114.82;57.95;;;;;;;1.48;100.00;156655.72;5052565;28;20043;-60
2022/11/14 04:53:36;;;;;;;136.13;60.08;;;;;;;1.50;100.00;156060.31;5054131;28;20036;-60
2022/11/14 04:56:01;;;;;;;139.65;63.15;;;;;;;1.50;100.00;156174.44;5052459;28;20025;-59
2022/11/14 04:58:26;;;;;;;114.57;56.05;;;;;;;1.47;100.00;156146.22;5053269;28;20041;-60
2022/11/14 05:00:52;;;;;;;129.88;59.63;;;;;;;1.47;100.00;156162.53;5053933;28;20044;-59
2022/11/14 05:03:17;;;;;;;130.07;60.22;;;;;;;1.49;100.00;155325.41;5052683;28;20492;-59
2022/11/14 05:05:42;;;;;;;114.20;55.85;;;;;;;1.50;100.00;154651.56;5053303;28;20032;-59
2022/11/14 05:08:08;;;;;;;133.25;58.05;;;;;;;1.47;100.00;154347.72;5052336;28;20041;-61
2022/11/14 05:10:33;;;;;;;129.45;60.25;;;;;;;1.46;100.00;153826.41;5053818;28;20075;-60
2022/11/14 05:12:58;;;;;;;117.78;58.45;;;;;;;1.46;100.00;153326.75;5059904;28;20033;-61
2022/11/14 05:15:24;;;;;;;127.43;59.67;;;;;;;1.34;100.00;152924.22;5053651;28;20033;-61
2022/11/14 05:17:49;;;;;;;122.63;60.80;;;;;;;1.45;100.00;152986.22;5066052;28;20045;-61
2022/11/14 05:20:15;;;;;;;109.00;57.20;;;;;;;1.42;100.00;153292.13;5063128;28;20032;-61
2022/11/14 05:22:40;;;;;;;131.73;55.33;;;;;;;1.41;100.00;153417.19;5056075;28;20091;-61
2022/11/14 05:25:06;;;;;;;117.97;57.92;;;;;;;1.41;100.00;152942.03;5053684;28;20025;-61
2022/11/14 05:27:31;;;;;;;114.75;58.17;;;;;;;1.35;100.00;152928.03;5050898;28;20435;-61
2022/11/14 05:29:57;;;;;;;130.65;55.22;;;;;;;1.38;100.00;152934.38;5056973;28;20079;-61
2022/11/14 05:32:22;;;;;;;123.68;56.88;;;;;;;1.39;100.00;152589.44;5051990;28;20495;-61
2022/11/14 05:34:47;;;;;;;127.50;57.58;;;;;;;1.35;100.00;153274.25;5052790;28;20052;-60
2022/11/14 05:37:13;;;;;;;116.60;58.40;;;;;;;1.33;100.00;153300.31;5051966;28;20033;-61
2022/11/14 05:39:38;;;;;;;118.60;57.03;;;;;;;1.33;100.00;153270.44;5065129;28;20497;-60
2022/11/14 05:42:03;;;;;;;123.32;56.00;;;;;;;-146.58;100.00;69501.63;5071322;28;20368;-60
2022/11/14 05:44:29;;;;;;;117.43;59.40;;;;;;;-146.58;100.00;69501.63;5073300;28;20024;-60
2022/11/14 05:46:54;;;;;;;131.82;62.10;;;;;;;-146.58;100.00;69501.63;5071534;28;20029;-60
2022/11/14 05:49:20;;;;;;;131.50;57.33;;;;;;;-146.58;100.00;69501.63;5072735;28;20429;-60
2022/11/14 05:51:45;;;;;;;126.72;58.75;;;;;;;-146.58;100.00;69501.63;5071280;28;20045;-60
2022/11/14 05:54:10;;;;;;;122.20;57.75;;;;;;;-146.58;100.00;69501.63;5073059;28;20021;-60
2022/11/14 05:56:36;;;;;;;123.45;60.40;;;;;;;-146.58;100.00;69501.63;5071439;28;20426;-60
2022/11/14 05:59:01;;;;;;;113.25;51.13;;;;;;;-146.58;100.00;69501.63;5071858;28;20041;-60
2022/11/14 06:01:26;;;;;;;124.05;55.80;;;;;;;-146.58;100.00;69501.63;5071695;28;20043;-60
2022/11/14 06:03:52;;;;;;;111.85;56.15;;;;;;;-146.58;100.00;69501.63;5072647;28;20074;-61
2022/11/14 06:06:20;;;;;;;124.07;58.33;;;;;;;-146.58;100.00;69501.63;5071074;28;20082;-60
2022/11/14 06:08:46;;;;;;;130.25;60.63;;;;;;;-146.58;100.00;69501.63;5072489;28;20020;-60
2022/11/14 06:11:15;;;;;;;121.00;58.67;;;;;;;-146.58;100.00;69501.63;5065861;28;20031;-60
2022/11/14 06:13:41;;;;;;;133.80;58.90;;;;;;;-146.58;100.00;69501.63;5071852;28;20028;-60
2022/11/14 06:16:10;;;;;;;144.65;63.25;;;;;;;-146.58;100.00;69501.63;5071114;28;20040;-58
2022/11/14 06:18:36;;;;;;;;;;;;;;;-146.58;100.00;69501.63;5072780;28;20499;-58
2022/11/14 06:21:03;;;;;;;132.88;63.63;;;;;;;-146.58;100.00;69501.63;5070472;28;19908;-57
2022/11/14 06:23:28;;;;;;;119.68;53.45;;;;;;;-146.58;100.00;69501.63;5072400;28;20078;-57
2022/11/14 06:26:01;;;;;;;116.90;60.13;;;;;;;-146.58;100.00;69501.63;5072054;28;20032;-58
2022/11/14 06:28:27;;;;;;;126.68;57.85;;;;;;;-146.58;100.00;69501.63;5070535;28;20380;-58
2022/11/14 06:30:59;;;;;;;123.57;54.20;;;;;;;-146.58;100.00;69501.63;5071978;28;20094;-58
2022/11/14 06:33:26;;;;;;;141.25;57.60;;;;;;;-146.58;100.00;69501.63;5070832;28;20124;-58
2022/11/14 06:35:59;;;;;;;121.60;54.40;;;;;;;-146.58;100.00;69501.63;5071774;28;20036;-57
2022/11/14 06:38:25;;;;;;;131.02;60.47;;;;;;;-146.58;100.00;69501.63;5069577;28;20051;-57
2022/11/14 06:40:50;;;;;;;138.63;58.60;;;;;;;-146.58;100.00;69501.63;5071654;28;20020;-58
2022/11/14 06:43:15;;;;;;;139.35;59.83;;;;;;;-146.58;100.00;69501.63;5070020;28;20032;-57
2022/11/14 06:45:41;;;;;;;125.18;59.67;;;;;;;-146.58;100.00;69501.63;5071704;28;20074;-57
2022/11/14 06:48:06;;;;;;;119.78;58.38;;;;;;;-146.58;100.00;69501.63;5070474;28;20044;-57
2022/11/14 06:50:31;;;;;;;132.88;61.55;;;;;;;-146.58;100.00;69501.63;5071460;28;20025;-58
2022/11/14 06:52:57;;;;;;;135.70;63.58;;;;;;;-146.58;100.00;69501.63;5070043;28;20040;-57
2022/11/14 06:55:23;;;;;;;129.13;58.88;;;;;;;-146.58;100.00;69501.63;5071857;28;20027;-57
2022/11/14 06:57:53;;;;;;;126.15;61.78;;;;;;;-146.58;100.00;69501.63;5069434;28;20576;-57
2022/11/14 07:00:19;;;;;;;115.15;56.92;;;;;;;-146.58;100.00;69501.63;5071660;28;20063;-57
2022/11/14 07:02:45;;;;;;;125.75;56.53;;;;;;;-146.58;100.00;69501.63;5069952;28;20124;-57
2022/11/14 07:05:10;;;;;;;124.55;62.03;;;;;;;-146.58;100.00;69501.63;5071148;28;20031;-58
2022/11/14 07:07:36;;;;;;;122.22;57.85;;;;;;;-146.58;100.00;69501.63;5070093;28;20553;-58
2022/11/14 07:10:01;;;;;;;113.40;57.33;;;;;;;-146.58;100.00;69501.63;5071173;28;20021;-57
2022/11/14 07:12:28;;;;;;;128.98;56.40;;;;;;;-146.58;100.00;69501.63;5069667;28;20047;-57
2022/11/14 07:14:53;;;;;;;124.47;59.70;;;;;;;-146.58;100.00;69501.63;5071247;28;20027;-58
2022/11/14 07:17:19;;;;;;;121.13;57.90;;;;;;;-146.58;100.00;69501.63;5069894;28;20499;-58
2022/11/14 07:19:44;;;;;;;118.30;58.20;;;;;;;-146.58;100.00;69501.63;5065193;28;20364;-58
2022/11/14 07:22:09;;;;;;;114.85;57.95;;;;;;;-146.58;100.00;69501.63;5064015;28;20102;-58
2022/11/14 07:24:35;;;;;;;112.65;58.08;;;;;;;-146.58;100.00;69501.63;5071026;28;20021;-57
2022/11/14 07:27:01;;;;;;;116.47;55.47;;;;;;;-146.58;100.00;69501.63;5068999;28;20044;-57
2022/11/14 07:29:26;;;;;;;118.05;53.58;;;;;;;-146.58;100.00;69501.63;5071319;28;20013;-58
2022/11/14 07:31:51;;;;;;;116.00;57.65;;;;;;;-146.58;100.00;69501.63;5068146;28;20576;-57
2022/11/14 07:34:17;;;;;;;101.90;55.67;;;;;;;-146.58;100.00;69501.63;5070712;28;20407;-57
2022/11/14 07:36:43;;;;;;;107.60;54.92;;;;;;;-146.58;100.00;69501.63;5069101;28;20040;-57
2022/11/14 07:39:08;;;;;;;108.13;57.75;;;;;;;-146.58;100.00;69501.63;5070590;28;20021;-58
2022/11/14 07:41:34;;;;;;;120.30;58.42;;;;;;;-146.58;100.00;69501.63;5049399;28;20052;-57
2022/11/14 07:43:59;;;;;;;111.85;56.20;;;;;;;-146.58;100.00;69501.63;5050702;28;20062;-57
2022/11/14 07:46:24;;;;;;;109.72;55.58;;;;;;;-146.58;100.00;69501.63;5049558;28;20518;-58
2022/11/14 07:48:50;;;;;;;95.10;51.67;;;;;;;-146.58;100.00;69501.63;5050043;28;20017;-57
2022/11/14 07:51:17;;;;;;;97.35;53.92;;;;;;;-146.58;nan;69501.63;5049240;28;20033;-57
2022/11/14 07:53:43;;;;;;;98.75;50.83;;;;;;;1.95;100.00;144387.81;5050797;28;20032;-57
2022/11/14 07:56:09;;;;;;;99.53;57.28;;;;;;;2.01;100.00;143360.91;5049178;28;20583;-57
2022/11/14 07:58:36;;;;;;;109.57;54.88;;;;;;;2.08;100.00;142336.44;5050466;28;20049;-57
2022/11/14 08:01:04;;;;;;;94.47;54.65;;;;;;;2.14;100.00;141309.59;5048908;28;20059;-57
2022/11/14 08:03:29;;;;;;;84.97;52.33;;;;;;;2.25;100.00;140292.16;5050504;28;20424;-57
2022/11/14 08:06:02;;;;;;;84.45;48.15;;;;;;;2.34;100.00;139619.22;5050552;28;20021;-57
2022/11/14 08:08:28;;;;;;;87.28;50.03;;;;;;;2.37;100.00;138932.31;5049195;28;20075;-57
2022/11/14 08:10:57;;;;;;;76.30;48.50;;;;;;;2.45;100.00;138603.81;5050378;28;20013;-57
2022/11/14 08:13:23;;;;;;;75.00;46.78;;;;;;;2.53;100.00;137927.25;5049565;28;20041;-57
2022/11/14 08:15:48;;;;;;;76.20;43.85;;;;;;;2.62;100.00;137599.72;5050665;28;20021;-58
2022/11/14 08:18:14;;;;;;;80.82;51.25;;;;;;;2.70;100.00;136925.25;5048857;28;20041;-57
2022/11/14 08:20:39;;;;;;;70.45;46.35;;;;;;;2.83;100.00;136258.59;5050182;28;20025;-57
2022/11/14 08:23:06;;;;;;;76.00;45.28;;;;;;;2.94;100.00;135588.41;5049246;28;20041;-57
2022/11/14 08:25:31;;;;;;;62.13;41.88;;;;;;;3.08;100.00;134925.88;5050644;28;20401;-57
2022/11/14 08:27:57;;;;;;;60.80;36.65;;;;;;;3.10;100.00;135277.28;5043680;28;20060;-57
2022/11/14 08:30:22;;;;;;;59.40;40.05;;;;;;;3.37;100.00;133253.22;5050820;28;20511;-57
2022/11/14 08:32:47;;;;;;;64.10;42.35;;;;;;;3.48;100.00;132583.44;5048578;28;20442;-57
2022/11/14 08:35:13;;;;;;;56.42;37.83;;;;;;;3.52;100.00;132591.13;5050486;28;20082;-57
2022/11/14 08:37:38;;;;;;;57.35;35.20;;;;;;;3.78;100.00;132298.81;5048855;28;20037;-58
2022/11/14 08:40:05;;;;;;;49.40;34.50;;;;;;;3.93;100.00;132677.69;5050074;28;20550;-57
2022/11/14 08:42:30;;;;;;;51.65;34.72;;;;;;;4.22;100.00;133086.47;5049185;28;20116;-57
2022/11/14 08:44:56;;;;;;;51.17;33.72;;;;;;;-146.58;100.00;69501.63;5050135;28;20511;-58
2022/11/14 08:47:21;;;;;;;49.63;36.42;;;;;;;4.87;100.00;134964.34;5052675;28;20045;-57
2022/11/14 08:49:46;;;;;;;46.08;30.13;;;;;;;-146.58;100.00;69501.63;5069807;28;20032;-57
2022/11/14 08:52:12;;;;;;;40.78;31.33;;;;;;;5.31;100.00;151456.44;5068879;28;20048;-57
2022/11/14 08:54:37;;;;;;;40.70;30.98;;;;;;;-146.58;100.00;69501.63;5069811;28;20051;-58
2022/11/14 08:57:03;;;;;;;42.83;30.75;;;;;;;5.18;100.00;161921.78;5068341;28;20078;-58
2022/11/14 08:59:29;;;;;;;42.28;30.88;;;;;;;5.15;100.00;161912.38;5070005;28;20034;-57
2022/11/14 09:01:55;;;;;;;43.53;32.15;;;;;;;5.12;100.00;161905.66;5069984;28;20134;-57
2022/11/14 09:04:20;;;;;;;42.42;29.63;;;;;;;5.28;100.00;161947.34;5073875;28;20021;-58
2022/11/14 09:06:45;;;;;;;38.75;26.52;;;;;;;5.33;100.00;161960.78;5073807;28;20028;-57
2022/11/14 09:09:11;;;;;;;38.45;30.17;;;;;;;5.49;100.00;162001.13;5071992;28;20032;-57
2022/11/14 09:11:36;;;;;;;44.28;31.73;;;;;;;5.63;100.00;162038.81;5073612;28;20033;-57
2022/11/14 09:14:02;;;;;;;39.97;29.17;;;;;;;5.97;100.00;162127.63;5072086;28;20039;-57
2022/11/14 09:16:27;;;;;;;36.50;27.92;;;;;;;6.27;100.00;162204.38;5073720;28;20024;-58
2022/11/14 09:18:52;;;;;;;35.33;26.20;;;;;;;6.49;100.00;162262.28;5071261;28;20044;-58
2022/11/14 09:21:18;;;;;;;36.58;27.92;;;;;;;6.77;100.00;162334.97;5073657;28;20379;-58
2022/11/14 09:23:46;;;;;;;34.55;26.75;;;;;;;7.01;100.00;162396.91;5071748;28;20104;-58
2022/11/14 09:26:11;;;;;;;34.67;26.15;;;;;;;7.03;100.00;162402.31;5073285;28;20085;-58
2022/11/14 09:28:36;;;;;;;35.42;27.00;;;;;;;-146.58;100.00;69501.63;5072079;28;20040;-58
2022/11/14 09:31:03;;;;;;;31.08;23.42;;;;;;;7.54;100.00;162537.00;5073249;28;20032;-58
2022/11/14 09:33:29;;;;;;;32.20;25.25;;;;;;;7.81;100.00;162607.06;5071519;28;20050;-58
2022/11/14 09:36:02;;;;;;;27.17;22.15;;;;;;;8.30;100.00;162733.75;5067463;28;20024;-58
2022/11/14 09:38:28;;;;;;;24.88;21.50;;;;;;;8.82;100.00;162871.31;5071835;28;20047;-58
2022/11/14 09:41:08;;;;;;;25.30;20.75;;;;;;;9.26;100.00;162985.91;5072378;28;20024;-58
2022/11/14 09:44:07;;;;;;;28.50;21.55;;;;;;;9.32;100.00;163000.75;5066667;28;20071;-58
2022/11/14 09:47:03;;;;;;;24.08;21.55;;;;;;;9.13;100.00;162952.16;5072717;28;20025;-58
2022/11/14 09:49:31;;;;;;;22.90;19.33;;;;;;;9.23;100.00;162976.44;5071333;28;20050;-58
2022/11/14 09:52:26;;;;;;;30.90;22.83;;;;;;;8.85;100.00;162879.38;5071393;28;20491;-57
2022/11/14 09:54:58;;;;;;;25.17;21.33;;;;;;;8.88;100.00;162886.09;5072194;28;20145;-58
2022/11/14 09:57:25;;;;;;;31.17;22.40;;;;;;;8.87;100.00;162884.78;5071590;28;20066;-58
2022/11/14 09:59:50;;;;;;;25.33;20.85;;;;;;;9.13;100.00;162952.16;5072453;28;20078;-58
2022/11/14 10:02:44;;;;;;;29.27;23.33;;;;;;;9.32;100.00;163000.75;5070961;28;20044;-58
2022/11/14 10:05:21;;;;;;;25.13;20.75;;;;;;;9.44;100.00;163033.09;5052787;28;20075;-58
2022/11/14 10:08:11;;;;;;;24.50;19.40;;;;;;;9.47;100.00;163041.22;5051016;28;20037;-58
2022/11/14 10:10:53;;;;;;;27.90;21.73;;;;;;;9.72;100.00;163105.91;5052304;28;20534;-58
2022/11/14 10:13:50;;;;;;;22.48;18.80;;;;;;;9.80;100.00;163127.50;5050990;28;20495;-58
2022/11/14 10:17:09;;;;;;;30.55;22.95;;;;;;;9.89;100.00;163149.09;5052420;28;20021;-58
2022/11/14 10:19:45;;;;;;;24.58;19.05;;;;;;;9.78;100.00;163122.16;5028706;28;20041;-58
2022/11/14 10:22:43;;;;;;;25.45;19.80;;;;;;;9.76;100.00;163116.75;5026737;28;20025;-57
2022/11/14 10:25:39;;;;;;;26.63;19.13;;;;;;;9.28;100.00;162989.91;5048171;28;20066;-58
2022/11/14 10:28:07;;;;;;;20.73;18.30;;;;;;;9.19;100.00;162968.38;5051159;28;20037;-58
2022/11/14 10:30:43;;;;;;;27.10;18.57;;;;;;;9.13;100.00;162950.84;5051917;28;20152;-58
2022/11/14 10:33:18;;;;;;;25.52;19.70;;;;;;;8.92;100.00;162895.53;5051061;28;20467;-58
2022/11/14 10:36:00;;;;;;;25.63;19.85;;;;;;;8.99;100.00;162914.41;5052119;28;20415;-58
2022/11/14 10:38:35;;;;;;;24.40;19.25;;;;;;;8.97;100.00;162909.06;5050526;28;20090;-58
2022/11/14 10:41:05;;;;;;;20.60;16.88;;;;;;;9.27;100.00;162988.59;5050506;28;20507;-58
2022/11/14 10:43:45;;;;;;;25.60;19.00;;;;;;;9.72;100.00;163105.91;5052370;28;20025;-58
2022/11/14 10:46:25;;;;;;;23.45;19.95;;;;;;;9.80;100.00;163127.50;5050558;28;20028;-58
2022/11/14 10:48:52;;;;;;;26.35;20.70;;;;;;;10.02;100.00;163184.19;5052069;28;20021;-58
2022/11/14 10:51:38;;;;;;;22.58;18.65;;;;;;;10.09;100.00;163201.75;5050392;28;20057;-57
2022/11/14 10:54:29;;;;;;;63.70;21.25;;;;;;;10.09;100.00;163203.06;5051690;28;20388;-58
2022/11/14 10:56:55;;;;;;;31.48;20.33;;;;;;;9.71;100.00;163103.25;5066682;28;20036;-57
2022/11/14 10:59:21;;;;;;;22.90;18.30;;;;;;;9.66;100.00;163089.75;5070846;28;20457;-58